sensor_id;sensor_type;location;lat;lon;timestamp;P1;durP1;ratioP1;P2;durP2;ratioP2
15818;SDS011;8010;53.986;12.106;2023-01-28T00:01:38;3.03;;;1.70;;
15818;SDS011;8010;53.986;12.106;2023-01-28T00:04:04;4.23;;;2.03;;
15818;SDS011;8010;53.986;12.106;2023-01-28T00:06:29;4.77;;;1.80;;
15818;SDS011;8010;53.986;12.106;2023-01-28T00:08:55;4.83;;;1.80;;
15818;SDS011;8010;53.986;12.106;2023-01-28T00:11:21;3.53;;;1.90;;
15818;SDS011;8010;53.986;12.106;2023-01-28T00:13:53;4.93;;;1.97;;
15818;SDS011;8010;53.986;12.106;2023-01-28T00:16:19;2.27;;;1.60;;
15818;SDS011;8010;53.986;12.106;2023-01-28T00:18:46;2.67;;;1.30;;
15818;SDS011;8010;53.986;12.106;2023-01-28T00:21:13;2.60;;;1.43;;
15818;SDS011;8010;53.986;12.106;2023-01-28T00:23:40;2.37;;;1.33;;
15818;SDS011;8010;53.986;12.106;2023-01-28T00:26:10;4.60;;;1.80;;
15818;SDS011;8010;53.986;12.106;2023-01-28T00:28:38;3.27;;;1.50;;
15818;SDS011;8010;53.986;12.106;2023-01-28T00:31:07;2.97;;;1.40;;
15818;SDS011;8010;53.986;12.106;2023-01-28T00:33:36;1.70;;;1.27;;
15818;SDS011;8010;53.986;12.106;2023-01-28T00:36:02;2.70;;;1.20;;
15818;SDS011;8010;53.986;12.106;2023-01-28T00:38:30;3.17;;;1.60;;
15818;SDS011;8010;53.986;12.106;2023-01-28T00:41:05;3.03;;;1.57;;
15818;SDS011;8010;53.986;12.106;2023-01-28T00:43:35;3.80;;;1.20;;
15818;SDS011;8010;53.986;12.106;2023-01-28T00:46:01;2.20;;;1.33;;
15818;SDS011;8010;53.986;12.106;2023-01-28T00:48:27;4.20;;;1.43;;
15818;SDS011;8010;53.986;12.106;2023-01-28T00:50:53;1.93;;;1.30;;
15818;SDS011;8010;53.986;12.106;2023-01-28T00:53:18;1.40;;;1.10;;
15818;SDS011;8010;53.986;12.106;2023-01-28T00:55:44;2.10;;;1.60;;
15818;SDS011;8010;53.986;12.106;2023-01-28T00:58:09;3.30;;;1.50;;
15818;SDS011;8010;53.986;12.106;2023-01-28T01:00:35;2.17;;;1.40;;
15818;SDS011;8010;53.986;12.106;2023-01-28T01:03:00;2.60;;;1.30;;
15818;SDS011;8010;53.986;12.106;2023-01-28T01:05:26;2.17;;;1.50;;
15818;SDS011;8010;53.986;12.106;2023-01-28T01:07:53;2.00;;;1.20;;
15818;SDS011;8010;53.986;12.106;2023-01-28T01:10:19;1.50;;;1.30;;
15818;SDS011;8010;53.986;12.106;2023-01-28T01:12:45;2.30;;;1.10;;
15818;SDS011;8010;53.986;12.106;2023-01-28T01:15:11;2.50;;;1.60;;
15818;SDS011;8010;53.986;12.106;2023-01-28T01:17:37;2.20;;;1.37;;
15818;SDS011;8010;53.986;12.106;2023-01-28T01:20:08;2.70;;;2.00;;
15818;SDS011;8010;53.986;12.106;2023-01-28T01:22:39;4.30;;;1.40;;
15818;SDS011;8010;53.986;12.106;2023-01-28T01:25:05;2.73;;;1.70;;
15818;SDS011;8010;53.986;12.106;2023-01-28T01:27:32;1.87;;;1.30;;
15818;SDS011;8010;53.986;12.106;2023-01-28T01:29:57;2.17;;;1.30;;
15818;SDS011;8010;53.986;12.106;2023-01-28T01:32:24;3.63;;;1.60;;
15818;SDS011;8010;53.986;12.106;2023-01-28T01:34:52;3.07;;;1.60;;
15818;SDS011;8010;53.986;12.106;2023-01-28T01:37:18;3.10;;;1.80;;
15818;SDS011;8010;53.986;12.106;2023-01-28T01:39:43;4.60;;;1.83;;
15818;SDS011;8010;53.986;12.106;2023-01-28T01:42:10;3.83;;;1.70;;
15818;SDS011;8010;53.986;12.106;2023-01-28T01:47:38;2.30;;;1.40;;
15818;SDS011;8010;53.986;12.106;2023-01-28T01:52:54;3.13;;;1.40;;
15818;SDS011;8010;53.986;12.106;2023-01-28T01:55:23;2.00;;;1.20;;
15818;SDS011;8010;53.986;12.106;2023-01-28T01:57:51;3.70;;;1.50;;
15818;SDS011;8010;53.986;12.106;2023-01-28T02:00:19;3.73;;;1.47;;
15818;SDS011;8010;53.986;12.106;2023-01-28T02:02:46;1.37;;;0.80;;
15818;SDS011;8010;53.986;12.106;2023-01-28T02:05:15;1.53;;;1.10;;
15818;SDS011;8010;53.986;12.106;2023-01-28T02:07:42;2.50;;;0.97;;
15818;SDS011;8010;53.986;12.106;2023-01-28T02:10:11;1.20;;;0.90;;
15818;SDS011;8010;53.986;12.106;2023-01-28T02:12:42;1.57;;;0.73;;
15818;SDS011;8010;53.986;12.106;2023-01-28T02:15:13;3.17;;;0.70;;
15818;SDS011;8010;53.986;12.106;2023-01-28T02:17:44;2.57;;;0.73;;
15818;SDS011;8010;53.986;12.106;2023-01-28T02:20:11;1.27;;;0.90;;
15818;SDS011;8010;53.986;12.106;2023-01-28T02:25:45;1.33;;;0.90;;
15818;SDS011;8010;53.986;12.106;2023-01-28T02:33:29;2.23;;;1.00;;
15818;SDS011;8010;53.986;12.106;2023-01-28T02:36:23;0.80;;;0.80;;
15818;SDS011;8010;53.986;12.106;2023-01-28T02:39:06;2.57;;;1.10;;
15818;SDS011;8010;53.986;12.106;2023-01-28T02:41:41;1.90;;;1.10;;
15818;SDS011;8010;53.986;12.106;2023-01-28T02:44:12;1.90;;;1.00;;
15818;SDS011;8010;53.986;12.106;2023-01-28T02:46:38;4.07;;;1.30;;
15818;SDS011;8010;53.986;12.106;2023-01-28T02:49:32;3.33;;;1.70;;
15818;SDS011;8010;53.986;12.106;2023-01-28T02:58:28;1.47;;;1.13;;
15818;SDS011;8010;53.986;12.106;2023-01-28T03:01:24;2.90;;;1.13;;
15818;SDS011;8010;53.986;12.106;2023-01-28T03:04:03;1.70;;;0.80;;
15818;SDS011;8010;53.986;12.106;2023-01-28T03:06:40;1.33;;;0.80;;
15818;SDS011;8010;53.986;12.106;2023-01-28T03:09:10;1.57;;;0.90;;
15818;SDS011;8010;53.986;12.106;2023-01-28T03:11:47;1.80;;;0.90;;
15818;SDS011;8010;53.986;12.106;2023-01-28T03:14:32;1.60;;;0.87;;
15818;SDS011;8010;53.986;12.106;2023-01-28T03:17:20;3.17;;;1.10;;
15818;SDS011;8010;53.986;12.106;2023-01-28T03:20:26;2.53;;;1.20;;
15818;SDS011;8010;53.986;12.106;2023-01-28T03:23:17;1.93;;;1.07;;
15818;SDS011;8010;53.986;12.106;2023-01-28T03:26:05;1.93;;;1.13;;
15818;SDS011;8010;53.986;12.106;2023-01-28T03:28:53;3.33;;;0.93;;
15818;SDS011;8010;53.986;12.106;2023-01-28T03:31:44;3.03;;;1.03;;
15818;SDS011;8010;53.986;12.106;2023-01-28T03:34:28;1.70;;;1.20;;
15818;SDS011;8010;53.986;12.106;2023-01-28T03:37:13;2.40;;;1.33;;
15818;SDS011;8010;53.986;12.106;2023-01-28T03:39:39;2.13;;;1.00;;
15818;SDS011;8010;53.986;12.106;2023-01-28T03:42:06;1.10;;;0.90;;
15818;SDS011;8010;53.986;12.106;2023-01-28T03:44:33;2.20;;;1.13;;
15818;SDS011;8010;53.986;12.106;2023-01-28T03:47:18;1.80;;;1.03;;
15818;SDS011;8010;53.986;12.106;2023-01-28T03:49:52;1.30;;;1.03;;
15818;SDS011;8010;53.986;12.106;2023-01-28T03:52:20;2.60;;;0.90;;
15818;SDS011;8010;53.986;12.106;2023-01-28T03:54:47;1.23;;;0.73;;
15818;SDS011;8010;53.986;12.106;2023-01-28T03:57:14;1.70;;;1.10;;
15818;SDS011;8010;53.986;12.106;2023-01-28T03:59:41;2.80;;;1.20;;
15818;SDS011;8010;53.986;12.106;2023-01-28T04:02:06;3.40;;;0.90;;
15818;SDS011;8010;53.986;12.106;2023-01-28T04:04:34;2.20;;;1.30;;
15818;SDS011;8010;53.986;12.106;2023-01-28T04:07:04;2.47;;;0.70;;
15818;SDS011;8010;53.986;12.106;2023-01-28T04:09:32;1.93;;;0.90;;
15818;SDS011;8010;53.986;12.106;2023-01-28T04:11:58;1.23;;;1.00;;
15818;SDS011;8010;53.986;12.106;2023-01-28T04:14:24;2.67;;;0.87;;
15818;SDS011;8010;53.986;12.106;2023-01-28T04:16:49;1.70;;;0.70;;
15818;SDS011;8010;53.986;12.106;2023-01-28T04:19:16;1.13;;;0.80;;
15818;SDS011;8010;53.986;12.106;2023-01-28T04:21:41;1.77;;;0.77;;
15818;SDS011;8010;53.986;12.106;2023-01-28T04:24:07;1.77;;;0.70;;
15818;SDS011;8010;53.986;12.106;2023-01-28T04:26:32;1.03;;;0.63;;
15818;SDS011;8010;53.986;12.106;2023-01-28T04:28:58;1.03;;;0.63;;
15818;SDS011;8010;53.986;12.106;2023-01-28T04:31:23;1.43;;;0.70;;
15818;SDS011;8010;53.986;12.106;2023-01-28T04:33:49;3.73;;;0.90;;
15818;SDS011;8010;53.986;12.106;2023-01-28T04:36:15;1.47;;;0.80;;
15818;SDS011;8010;53.986;12.106;2023-01-28T04:38:40;2.27;;;0.80;;
15818;SDS011;8010;53.986;12.106;2023-01-28T04:41:06;2.27;;;1.00;;
15818;SDS011;8010;53.986;12.106;2023-01-28T04:43:32;1.10;;;0.73;;
15818;SDS011;8010;53.986;12.106;2023-01-28T04:45:58;0.90;;;0.70;;
15818;SDS011;8010;53.986;12.106;2023-01-28T04:48:23;1.27;;;0.77;;
15818;SDS011;8010;53.986;12.106;2023-01-28T04:50:49;1.60;;;0.90;;
15818;SDS011;8010;53.986;12.106;2023-01-28T04:53:14;1.50;;;0.80;;
15818;SDS011;8010;53.986;12.106;2023-01-28T04:55:40;1.33;;;0.70;;
15818;SDS011;8010;53.986;12.106;2023-01-28T04:58:05;2.77;;;0.90;;
15818;SDS011;8010;53.986;12.106;2023-01-28T05:00:31;1.80;;;1.00;;
15818;SDS011;8010;53.986;12.106;2023-01-28T05:02:57;1.23;;;1.00;;
15818;SDS011;8010;53.986;12.106;2023-01-28T05:05:22;2.03;;;1.03;;
15818;SDS011;8010;53.986;12.106;2023-01-28T05:07:55;1.17;;;0.90;;
15818;SDS011;8010;53.986;12.106;2023-01-28T05:10:21;3.00;;;1.40;;
15818;SDS011;8010;53.986;12.106;2023-01-28T05:12:47;2.03;;;1.20;;
15818;SDS011;8010;53.986;12.106;2023-01-28T05:15:16;2.70;;;1.20;;
15818;SDS011;8010;53.986;12.106;2023-01-28T05:17:43;3.27;;;1.20;;
15818;SDS011;8010;53.986;12.106;2023-01-28T05:20:10;1.83;;;1.30;;
15818;SDS011;8010;53.986;12.106;2023-01-28T05:22:37;2.43;;;1.30;;
15818;SDS011;8010;53.986;12.106;2023-01-28T05:25:03;3.00;;;1.13;;
15818;SDS011;8010;53.986;12.106;2023-01-28T05:27:30;2.07;;;1.23;;
15818;SDS011;8010;53.986;12.106;2023-01-28T05:29:56;2.07;;;1.27;;
15818;SDS011;8010;53.986;12.106;2023-01-28T05:32:22;2.80;;;1.17;;
15818;SDS011;8010;53.986;12.106;2023-01-28T05:34:48;3.17;;;1.20;;
15818;SDS011;8010;53.986;12.106;2023-01-28T05:37:13;2.20;;;1.20;;
15818;SDS011;8010;53.986;12.106;2023-01-28T05:39:39;1.53;;;1.00;;
15818;SDS011;8010;53.986;12.106;2023-01-28T05:42:04;1.47;;;1.23;;
15818;SDS011;8010;53.986;12.106;2023-01-28T05:44:30;1.60;;;1.10;;
15818;SDS011;8010;53.986;12.106;2023-01-28T05:46:55;3.17;;;1.20;;
15818;SDS011;8010;53.986;12.106;2023-01-28T05:49:21;1.77;;;1.10;;
15818;SDS011;8010;53.986;12.106;2023-01-28T05:51:46;4.10;;;1.23;;
15818;SDS011;8010;53.986;12.106;2023-01-28T05:54:12;1.20;;;1.10;;
15818;SDS011;8010;53.986;12.106;2023-01-28T05:56:38;1.30;;;1.00;;
15818;SDS011;8010;53.986;12.106;2023-01-28T05:59:04;2.60;;;0.93;;
15818;SDS011;8010;53.986;12.106;2023-01-28T06:01:30;2.20;;;0.90;;
15818;SDS011;8010;53.986;12.106;2023-01-28T06:03:56;1.83;;;1.30;;
15818;SDS011;8010;53.986;12.106;2023-01-28T06:06:23;1.10;;;1.00;;
15818;SDS011;8010;53.986;12.106;2023-01-28T06:08:48;1.60;;;1.20;;
15818;SDS011;8010;53.986;12.106;2023-01-28T06:11:14;1.47;;;1.10;;
15818;SDS011;8010;53.986;12.106;2023-01-28T06:13:39;1.60;;;1.23;;
15818;SDS011;8010;53.986;12.106;2023-01-28T06:16:05;3.03;;;1.20;;
15818;SDS011;8010;53.986;12.106;2023-01-28T06:18:31;2.53;;;0.83;;
15818;SDS011;8010;53.986;12.106;2023-01-28T06:20:57;2.60;;;1.30;;
15818;SDS011;8010;53.986;12.106;2023-01-28T06:23:23;2.57;;;1.10;;
15818;SDS011;8010;53.986;12.106;2023-01-28T06:25:52;1.40;;;1.20;;
15818;SDS011;8010;53.986;12.106;2023-01-28T06:28:18;1.20;;;0.87;;
15818;SDS011;8010;53.986;12.106;2023-01-28T06:30:46;1.50;;;0.90;;
15818;SDS011;8010;53.986;12.106;2023-01-28T06:33:13;1.10;;;1.00;;
15818;SDS011;8010;53.986;12.106;2023-01-28T06:35:39;2.27;;;1.37;;
15818;SDS011;8010;53.986;12.106;2023-01-28T06:38:04;4.17;;;1.27;;
15818;SDS011;8010;53.986;12.106;2023-01-28T06:40:30;1.27;;;0.90;;
15818;SDS011;8010;53.986;12.106;2023-01-28T06:42:55;3.33;;;1.10;;
15818;SDS011;8010;53.986;12.106;2023-01-28T06:45:21;1.70;;;1.40;;
15818;SDS011;8010;53.986;12.106;2023-01-28T06:47:46;2.40;;;1.03;;
15818;SDS011;8010;53.986;12.106;2023-01-28T06:50:12;3.97;;;1.53;;
15818;SDS011;8010;53.986;12.106;2023-01-28T06:52:38;4.17;;;1.47;;
15818;SDS011;8010;53.986;12.106;2023-01-28T06:55:05;2.47;;;1.07;;
15818;SDS011;8010;53.986;12.106;2023-01-28T06:57:31;1.90;;;1.27;;
15818;SDS011;8010;53.986;12.106;2023-01-28T06:59:57;2.97;;;1.50;;
15818;SDS011;8010;53.986;12.106;2023-01-28T07:02:22;2.43;;;1.50;;
15818;SDS011;8010;53.986;12.106;2023-01-28T07:04:48;2.90;;;1.53;;
15818;SDS011;8010;53.986;12.106;2023-01-28T07:07:13;1.63;;;1.17;;
15818;SDS011;8010;53.986;12.106;2023-01-28T07:09:39;2.17;;;1.50;;
15818;SDS011;8010;53.986;12.106;2023-01-28T07:12:04;4.43;;;1.20;;
15818;SDS011;8010;53.986;12.106;2023-01-28T07:14:30;1.73;;;1.63;;
15818;SDS011;8010;53.986;12.106;2023-01-28T07:16:56;4.03;;;2.00;;
15818;SDS011;8010;53.986;12.106;2023-01-28T07:19:21;1.60;;;1.30;;
15818;SDS011;8010;53.986;12.106;2023-01-28T07:21:47;1.43;;;1.30;;
15818;SDS011;8010;53.986;12.106;2023-01-28T07:24:12;1.87;;;1.53;;
15818;SDS011;8010;53.986;12.106;2023-01-28T07:26:38;2.13;;;1.70;;
15818;SDS011;8010;53.986;12.106;2023-01-28T07:29:03;4.57;;;1.90;;
15818;SDS011;8010;53.986;12.106;2023-01-28T07:31:29;3.90;;;2.43;;
15818;SDS011;8010;53.986;12.106;2023-01-28T07:33:55;2.90;;;2.00;;
15818;SDS011;8010;53.986;12.106;2023-01-28T07:36:20;2.87;;;2.10;;
15818;SDS011;8010;53.986;12.106;2023-01-28T07:38:46;3.53;;;2.43;;
15818;SDS011;8010;53.986;12.106;2023-01-28T07:41:11;6.60;;;2.10;;
15818;SDS011;8010;53.986;12.106;2023-01-28T07:43:37;4.10;;;2.23;;
15818;SDS011;8010;53.986;12.106;2023-01-28T07:46:02;3.27;;;2.30;;
15818;SDS011;8010;53.986;12.106;2023-01-28T07:48:28;4.43;;;2.50;;
15818;SDS011;8010;53.986;12.106;2023-01-28T07:50:56;2.57;;;2.20;;
15818;SDS011;8010;53.986;12.106;2023-01-28T07:53:23;4.27;;;2.77;;
15818;SDS011;8010;53.986;12.106;2023-01-28T07:55:48;5.97;;;2.63;;
15818;SDS011;8010;53.986;12.106;2023-01-28T07:58:14;3.83;;;2.47;;
15818;SDS011;8010;53.986;12.106;2023-01-28T08:00:39;4.63;;;2.40;;
15818;SDS011;8010;53.986;12.106;2023-01-28T08:03:11;5.40;;;2.73;;
15818;SDS011;8010;53.986;12.106;2023-01-28T08:08:06;3.97;;;2.53;;
15818;SDS011;8010;53.986;12.106;2023-01-28T08:10:33;4.00;;;2.90;;
15818;SDS011;8010;53.986;12.106;2023-01-28T08:12:59;3.20;;;2.57;;
15818;SDS011;8010;53.986;12.106;2023-01-28T08:15:25;4.07;;;2.67;;
15818;SDS011;8010;53.986;12.106;2023-01-28T08:17:52;3.47;;;2.70;;
15818;SDS011;8010;53.986;12.106;2023-01-28T08:20:19;3.73;;;2.40;;
15818;SDS011;8010;53.986;12.106;2023-01-28T08:22:45;4.00;;;2.60;;
15818;SDS011;8010;53.986;12.106;2023-01-28T08:25:11;5.03;;;2.20;;
15818;SDS011;8010;53.986;12.106;2023-01-28T08:27:37;4.97;;;2.67;;
15818;SDS011;8010;53.986;12.106;2023-01-28T08:30:03;3.63;;;2.03;;
15818;SDS011;8010;53.986;12.106;2023-01-28T08:32:29;3.70;;;2.33;;
15818;SDS011;8010;53.986;12.106;2023-01-28T08:34:55;5.77;;;2.67;;
15818;SDS011;8010;53.986;12.106;2023-01-28T08:37:21;4.43;;;2.53;;
15818;SDS011;8010;53.986;12.106;2023-01-28T08:39:46;5.27;;;2.20;;
15818;SDS011;8010;53.986;12.106;2023-01-28T08:42:12;5.07;;;2.30;;
15818;SDS011;8010;53.986;12.106;2023-01-28T08:44:37;3.87;;;2.50;;
15818;SDS011;8010;53.986;12.106;2023-01-28T08:47:03;3.67;;;2.30;;
15818;SDS011;8010;53.986;12.106;2023-01-28T08:49:28;3.83;;;2.70;;
15818;SDS011;8010;53.986;12.106;2023-01-28T08:51:54;6.47;;;2.63;;
15818;SDS011;8010;53.986;12.106;2023-01-28T08:54:19;6.50;;;3.13;;
15818;SDS011;8010;53.986;12.106;2023-01-28T08:56:45;5.17;;;2.67;;
15818;SDS011;8010;53.986;12.106;2023-01-28T08:59:12;4.83;;;2.60;;
15818;SDS011;8010;53.986;12.106;2023-01-28T09:01:38;3.90;;;2.50;;
15818;SDS011;8010;53.986;12.106;2023-01-28T09:04:04;3.57;;;2.53;;
15818;SDS011;8010;53.986;12.106;2023-01-28T09:06:30;5.87;;;2.40;;
15818;SDS011;8010;53.986;12.106;2023-01-28T09:08:56;7.07;;;2.40;;
15818;SDS011;8010;53.986;12.106;2023-01-28T09:11:22;3.40;;;2.50;;
15818;SDS011;8010;53.986;12.106;2023-01-28T09:13:48;3.70;;;2.27;;
15818;SDS011;8010;53.986;12.106;2023-01-28T09:16:14;4.23;;;2.63;;
15818;SDS011;8010;53.986;12.106;2023-01-28T09:18:39;3.33;;;2.20;;
15818;SDS011;8010;53.986;12.106;2023-01-28T09:21:05;2.37;;;1.70;;
15818;SDS011;8010;53.986;12.106;2023-01-28T09:23:35;3.87;;;2.20;;
15818;SDS011;8010;53.986;12.106;2023-01-28T09:26:02;3.60;;;2.50;;
15818;SDS011;8010;53.986;12.106;2023-01-28T09:28:29;3.70;;;2.40;;
15818;SDS011;8010;53.986;12.106;2023-01-28T09:31:01;4.57;;;2.70;;
15818;SDS011;8010;53.986;12.106;2023-01-28T09:33:27;4.17;;;2.40;;
15818;SDS011;8010;53.986;12.106;2023-01-28T09:35:53;3.37;;;1.97;;
15818;SDS011;8010;53.986;12.106;2023-01-28T09:38:18;3.67;;;1.70;;
15818;SDS011;8010;53.986;12.106;2023-01-28T09:40:44;3.77;;;2.43;;
15818;SDS011;8010;53.986;12.106;2023-01-28T09:46:13;9.07;;;2.73;;
15818;SDS011;8010;53.986;12.106;2023-01-28T09:48:44;5.03;;;2.37;;
15818;SDS011;8010;53.986;12.106;2023-01-28T09:54:01;3.23;;;1.87;;
15818;SDS011;8010;53.986;12.106;2023-01-28T09:56:35;2.87;;;1.63;;
15818;SDS011;8010;53.986;12.106;2023-01-28T09:59:20;3.87;;;1.90;;
15818;SDS011;8010;53.986;12.106;2023-01-28T10:01:49;3.07;;;1.20;;
15818;SDS011;8010;53.986;12.106;2023-01-28T10:04:19;2.23;;;1.67;;
15818;SDS011;8010;53.986;12.106;2023-01-28T10:07:12;6.07;;;2.17;;
15818;SDS011;8010;53.986;12.106;2023-01-28T10:10:05;3.70;;;2.03;;
15818;SDS011;8010;53.986;12.106;2023-01-28T10:12:54;3.63;;;1.97;;
15818;SDS011;8010;53.986;12.106;2023-01-28T10:26:59;3.83;;;2.30;;
15818;SDS011;8010;53.986;12.106;2023-01-28T10:29:28;2.47;;;1.80;;
15818;SDS011;8010;53.986;12.106;2023-01-28T10:32:04;2.43;;;1.90;;
15818;SDS011;8010;53.986;12.106;2023-01-28T10:34:39;2.43;;;1.80;;
15818;SDS011;8010;53.986;12.106;2023-01-28T10:37:05;3.37;;;1.93;;
15818;SDS011;8010;53.986;12.106;2023-01-28T10:39:31;2.00;;;1.50;;
15818;SDS011;8010;53.986;12.106;2023-01-28T10:41:57;2.10;;;1.50;;
15818;SDS011;8010;53.986;12.106;2023-01-28T10:44:44;2.60;;;1.83;;
15818;SDS011;8010;53.986;12.106;2023-01-28T10:47:11;6.07;;;1.70;;
15818;SDS011;8010;53.986;12.106;2023-01-28T10:49:42;4.80;;;1.93;;
15818;SDS011;8010;53.986;12.106;2023-01-28T10:52:14;3.87;;;2.47;;
15818;SDS011;8010;53.986;12.106;2023-01-28T10:54:40;4.03;;;1.73;;
15818;SDS011;8010;53.986;12.106;2023-01-28T10:57:12;3.50;;;1.43;;
15818;SDS011;8010;53.986;12.106;2023-01-28T10:59:40;1.93;;;1.20;;
15818;SDS011;8010;53.986;12.106;2023-01-28T11:05:13;4.07;;;1.53;;
15818;SDS011;8010;53.986;12.106;2023-01-28T11:07:44;1.97;;;1.07;;
15818;SDS011;8010;53.986;12.106;2023-01-28T11:10:23;3.20;;;1.57;;
15818;SDS011;8010;53.986;12.106;2023-01-28T11:12:54;2.93;;;1.40;;
15818;SDS011;8010;53.986;12.106;2023-01-28T11:15:20;3.03;;;1.83;;
15818;SDS011;8010;53.986;12.106;2023-01-28T11:17:47;2.33;;;1.53;;
15818;SDS011;8010;53.986;12.106;2023-01-28T11:20:20;3.87;;;1.80;;
15818;SDS011;8010;53.986;12.106;2023-01-28T11:22:49;3.60;;;1.60;;
15818;SDS011;8010;53.986;12.106;2023-01-28T11:25:23;3.53;;;1.47;;
15818;SDS011;8010;53.986;12.106;2023-01-28T11:28:02;4.87;;;2.30;;
15818;SDS011;8010;53.986;12.106;2023-01-28T11:30:33;1.37;;;1.03;;
15818;SDS011;8010;53.986;12.106;2023-01-28T11:33:06;5.03;;;1.30;;
15818;SDS011;8010;53.986;12.106;2023-01-28T11:35:55;2.47;;;1.50;;
15818;SDS011;8010;53.986;12.106;2023-01-28T11:38:31;3.07;;;1.90;;
15818;SDS011;8010;53.986;12.106;2023-01-28T11:40:58;1.63;;;1.27;;
15818;SDS011;8010;53.986;12.106;2023-01-28T11:43:26;5.43;;;2.17;;
15818;SDS011;8010;53.986;12.106;2023-01-28T11:48:36;2.17;;;1.50;;
15818;SDS011;8010;53.986;12.106;2023-01-28T11:51:15;4.03;;;1.30;;
15818;SDS011;8010;53.986;12.106;2023-01-28T11:56:33;4.63;;;2.40;;
15818;SDS011;8010;53.986;12.106;2023-01-28T12:05:15;7.20;;;2.83;;
15818;SDS011;8010;53.986;12.106;2023-01-28T12:07:51;4.93;;;2.53;;
15818;SDS011;8010;53.986;12.106;2023-01-28T12:10:32;4.07;;;2.30;;
15818;SDS011;8010;53.986;12.106;2023-01-28T12:27:17;3.00;;;1.97;;
15818;SDS011;8010;53.986;12.106;2023-01-28T12:30:10;3.77;;;2.50;;
15818;SDS011;8010;53.986;12.106;2023-01-28T12:33:11;3.20;;;1.70;;
15818;SDS011;8010;53.986;12.106;2023-01-28T12:36:00;3.73;;;2.10;;
15818;SDS011;8010;53.986;12.106;2023-01-28T12:38:43;4.10;;;2.60;;
15818;SDS011;8010;53.986;12.106;2023-01-28T12:41:27;2.67;;;1.90;;
15818;SDS011;8010;53.986;12.106;2023-01-28T12:44:00;4.30;;;2.53;;
15818;SDS011;8010;53.986;12.106;2023-01-28T12:46:38;3.03;;;1.90;;
15818;SDS011;8010;53.986;12.106;2023-01-28T12:49:39;4.97;;;2.10;;
15818;SDS011;8010;53.986;12.106;2023-01-28T12:52:14;4.10;;;2.20;;
15818;SDS011;8010;53.986;12.106;2023-01-28T12:54:45;5.33;;;3.10;;
15818;SDS011;8010;53.986;12.106;2023-01-28T12:57:22;4.37;;;2.67;;
15818;SDS011;8010;53.986;12.106;2023-01-28T12:59:55;3.60;;;2.63;;
15818;SDS011;8010;53.986;12.106;2023-01-28T13:02:46;3.97;;;2.97;;
15818;SDS011;8010;53.986;12.106;2023-01-28T13:05:20;4.67;;;3.17;;
15818;SDS011;8010;53.986;12.106;2023-01-28T13:07:52;4.93;;;2.83;;
15818;SDS011;8010;53.986;12.106;2023-01-28T13:10:26;4.00;;;2.87;;
15818;SDS011;8010;53.986;12.106;2023-01-28T13:12:56;8.87;;;4.00;;
15818;SDS011;8010;53.986;12.106;2023-01-28T13:15:23;5.27;;;3.43;;
15818;SDS011;8010;53.986;12.106;2023-01-28T13:17:53;5.63;;;3.37;;
15818;SDS011;8010;53.986;12.106;2023-01-28T13:23:22;4.70;;;3.00;;
15818;SDS011;8010;53.986;12.106;2023-01-28T13:25:54;5.00;;;2.67;;
15818;SDS011;8010;53.986;12.106;2023-01-28T13:28:24;3.27;;;2.97;;
15818;SDS011;8010;53.986;12.106;2023-01-28T13:31:01;4.70;;;3.80;;
15818;SDS011;8010;53.986;12.106;2023-01-28T13:33:33;7.70;;;2.93;;
15818;SDS011;8010;53.986;12.106;2023-01-28T13:38:41;4.63;;;3.33;;
15818;SDS011;8010;53.986;12.106;2023-01-28T13:41:08;4.73;;;3.20;;
15818;SDS011;8010;53.986;12.106;2023-01-28T13:46:05;5.97;;;3.37;;
15818;SDS011;8010;53.986;12.106;2023-01-28T13:48:44;3.77;;;3.13;;
15818;SDS011;8010;53.986;12.106;2023-01-28T13:51:23;10.33;;;3.47;;
15818;SDS011;8010;53.986;12.106;2023-01-28T13:59:30;6.23;;;3.67;;
15818;SDS011;8010;53.986;12.106;2023-01-28T14:13:22;5.83;;;4.00;;
15818;SDS011;8010;53.986;12.106;2023-01-28T14:18:47;5.57;;;4.30;;
15818;SDS011;8010;53.986;12.106;2023-01-28T14:21:15;7.37;;;4.17;;
15818;SDS011;8010;53.986;12.106;2023-01-28T14:23:44;5.97;;;3.20;;
15818;SDS011;8010;53.986;12.106;2023-01-28T14:26:20;6.13;;;3.57;;
15818;SDS011;8010;53.986;12.106;2023-01-28T14:31:57;8.50;;;3.97;;
15818;SDS011;8010;53.986;12.106;2023-01-28T14:34:28;5.57;;;3.77;;
15818;SDS011;8010;53.986;12.106;2023-01-28T14:36:59;5.17;;;3.13;;
15818;SDS011;8010;53.986;12.106;2023-01-28T14:39:29;3.87;;;3.40;;
15818;SDS011;8010;53.986;12.106;2023-01-28T14:41:57;5.17;;;3.10;;
15818;SDS011;8010;53.986;12.106;2023-01-28T14:47:06;5.93;;;3.23;;
15818;SDS011;8010;53.986;12.106;2023-01-28T14:50:18;3.83;;;3.17;;
15818;SDS011;8010;53.986;12.106;2023-01-28T14:53:12;4.03;;;3.13;;
15818;SDS011;8010;53.986;12.106;2023-01-28T14:58:21;5.40;;;3.83;;
15818;SDS011;8010;53.986;12.106;2023-01-28T15:00:52;5.03;;;3.47;;
15818;SDS011;8010;53.986;12.106;2023-01-28T15:03:19;7.03;;;4.20;;
15818;SDS011;8010;53.986;12.106;2023-01-28T15:05:45;6.63;;;4.60;;
15818;SDS011;8010;53.986;12.106;2023-01-28T15:08:23;6.67;;;4.20;;
15818;SDS011;8010;53.986;12.106;2023-01-28T15:10:50;7.30;;;4.10;;
15818;SDS011;8010;53.986;12.106;2023-01-28T15:13:24;6.20;;;3.73;;
15818;SDS011;8010;53.986;12.106;2023-01-28T15:15:53;5.33;;;3.40;;
15818;SDS011;8010;53.986;12.106;2023-01-28T15:18:41;8.87;;;4.47;;
15818;SDS011;8010;53.986;12.106;2023-01-28T15:21:08;4.93;;;3.37;;
15818;SDS011;8010;53.986;12.106;2023-01-28T15:23:38;5.47;;;3.90;;
15818;SDS011;8010;53.986;12.106;2023-01-28T15:28:39;5.90;;;3.93;;
15818;SDS011;8010;53.986;12.106;2023-01-28T15:31:16;6.70;;;4.03;;
15818;SDS011;8010;53.986;12.106;2023-01-28T15:33:44;4.40;;;3.20;;
15818;SDS011;8010;53.986;12.106;2023-01-28T15:36:09;7.73;;;4.33;;
15818;SDS011;8010;53.986;12.106;2023-01-28T15:38:35;7.57;;;4.03;;
15818;SDS011;8010;53.986;12.106;2023-01-28T15:41:01;4.83;;;3.30;;
15818;SDS011;8010;53.986;12.106;2023-01-28T15:43:30;4.83;;;3.20;;
15818;SDS011;8010;53.986;12.106;2023-01-28T15:45:58;5.93;;;4.43;;
15818;SDS011;8010;53.986;12.106;2023-01-28T15:48:27;4.47;;;3.10;;
15818;SDS011;8010;53.986;12.106;2023-01-28T15:50:59;6.17;;;4.03;;
15818;SDS011;8010;53.986;12.106;2023-01-28T15:53:50;5.50;;;3.93;;
15818;SDS011;8010;53.986;12.106;2023-01-28T15:56:14;5.10;;;3.60;;
15818;SDS011;8010;53.986;12.106;2023-01-28T15:58:40;7.13;;;4.33;;
15818;SDS011;8010;53.986;12.106;2023-01-28T16:03:32;5.00;;;3.47;;
15818;SDS011;8010;53.986;12.106;2023-01-28T16:06:01;7.73;;;4.13;;
15818;SDS011;8010;53.986;12.106;2023-01-28T16:11:11;8.37;;;3.67;;
15818;SDS011;8010;53.986;12.106;2023-01-28T16:13:40;4.83;;;3.57;;
15818;SDS011;8010;53.986;12.106;2023-01-28T16:16:08;6.80;;;4.43;;
15818;SDS011;8010;53.986;12.106;2023-01-28T16:18:47;5.67;;;4.27;;
15818;SDS011;8010;53.986;12.106;2023-01-28T16:21:27;11.67;;;5.23;;
15818;SDS011;8010;53.986;12.106;2023-01-28T16:26:31;9.87;;;5.87;;
15818;SDS011;8010;53.986;12.106;2023-01-28T16:28:59;10.97;;;5.03;;
15818;SDS011;8010;53.986;12.106;2023-01-28T16:31:36;6.90;;;4.30;;
15818;SDS011;8010;53.986;12.106;2023-01-28T16:34:02;5.67;;;4.00;;
15818;SDS011;8010;53.986;12.106;2023-01-28T16:36:27;7.33;;;3.53;;
15818;SDS011;8010;53.986;12.106;2023-01-28T16:38:53;5.83;;;3.83;;
15818;SDS011;8010;53.986;12.106;2023-01-28T16:41:23;7.97;;;4.23;;
15818;SDS011;8010;53.986;12.106;2023-01-28T16:43:51;4.60;;;3.90;;
15818;SDS011;8010;53.986;12.106;2023-01-28T16:46:17;6.87;;;4.53;;
15818;SDS011;8010;53.986;12.106;2023-01-28T16:48:42;6.63;;;4.70;;
15818;SDS011;8010;53.986;12.106;2023-01-28T16:51:15;8.03;;;4.77;;
15818;SDS011;8010;53.986;12.106;2023-01-28T16:53:45;8.80;;;4.83;;
15818;SDS011;8010;53.986;12.106;2023-01-28T16:56:13;8.13;;;4.50;;
15818;SDS011;8010;53.986;12.106;2023-01-28T16:58:41;7.67;;;4.37;;
15818;SDS011;8010;53.986;12.106;2023-01-28T17:01:06;9.97;;;6.23;;